createdAt,value
2023-06-01T11:56:32.585Z,0.70
2023-06-01T11:59:01.634Z,0.50
2023-06-01T12:01:29.362Z,1.30
2023-06-01T12:03:59.854Z,0.70
2023-06-01T12:06:27.503Z,0.70
2023-06-01T12:08:56.721Z,0.60
2023-06-01T12:11:30.394Z,1.00
2023-06-01T12:13:59.288Z,0.60
2023-06-01T12:16:57.820Z,0.80
2023-06-01T12:19:27.213Z,0.50
2023-06-01T12:21:56.696Z,0.40
2023-06-01T12:24:29.391Z,0.60
2023-06-01T12:26:58.373Z,0.50
2023-06-01T12:29:39.512Z,0.60
2023-06-01T12:32:07.356Z,0.70
2023-06-01T12:34:38.722Z,0.60
2023-06-01T12:37:16.649Z,0.70
2023-06-01T12:39:44.536Z,1.00
2023-06-01T12:42:12.778Z,0.60
2023-06-01T12:44:42.817Z,0.70
2023-06-01T12:47:10.384Z,0.50
2023-06-01T12:49:39.121Z,0.70
2023-06-01T12:52:07.575Z,0.70
2023-06-01T12:54:34.993Z,0.30
2023-06-01T12:57:03.057Z,0.50
2023-06-01T12:59:30.331Z,0.40
2023-06-01T13:01:57.704Z,0.50
2023-06-01T13:04:26.059Z,0.60
2023-06-01T13:06:53.406Z,0.50
2023-06-01T13:09:21.438Z,0.90
2023-06-01T13:11:48.832Z,1.10
2023-06-01T13:14:16.249Z,0.60
2023-06-01T13:16:44.132Z,0.80
2023-06-01T13:19:11.509Z,0.40
2023-06-01T13:21:38.913Z,0.90
2023-06-01T13:24:06.579Z,0.90
2023-06-01T13:26:33.849Z,0.40
2023-06-01T13:29:01.821Z,1.00
2023-06-01T13:31:30.920Z,0.90
2023-06-01T13:33:58.277Z,0.80
2023-06-01T13:36:25.806Z,0.80
2023-06-01T13:38:53.178Z,0.70
2023-06-01T13:41:20.547Z,0.60
2023-06-01T13:43:47.751Z,1.10
2023-06-01T13:46:15.087Z,1.00
2023-06-01T13:48:42.479Z,5.20
2023-06-01T13:51:10.271Z,1.30
2023-06-01T13:53:37.577Z,1.00
2023-06-01T13:56:05.407Z,0.70
2023-06-01T13:58:35.410Z,1.10
2023-06-01T14:01:02.939Z,0.60
2023-06-01T14:03:31.654Z,1.10
2023-06-01T14:05:59.039Z,1.10
2023-06-01T14:08:26.554Z,0.90
2023-06-01T14:10:53.858Z,0.90
2023-06-01T14:13:21.162Z,1.20
2023-06-01T14:15:48.551Z,1.00
2023-06-01T14:18:16.010Z,0.90
2023-06-01T14:20:43.354Z,0.90
2023-06-01T14:23:12.406Z,1.10
2023-06-01T14:25:39.873Z,0.90
2023-06-01T14:28:07.414Z,0.90
2023-06-01T14:30:34.728Z,0.80
2023-06-01T14:33:02.135Z,0.70
2023-06-01T14:35:29.504Z,0.50
2023-06-01T14:37:57.081Z,1.10
2023-06-01T14:40:24.468Z,0.70
2023-06-01T14:42:52.025Z,1.00
2023-06-01T14:45:20.718Z,1.00
2023-06-01T14:47:48.655Z,0.70
2023-06-01T14:50:16.043Z,0.80
2023-06-01T14:52:43.321Z,0.90
2023-06-01T14:55:12.947Z,0.70
2023-06-01T14:57:41.925Z,0.70
2023-06-01T15:00:09.999Z,0.60
2023-06-01T15:02:37.642Z,0.70
2023-06-01T15:05:05.557Z,0.70
2023-06-01T15:07:32.831Z,1.10
2023-06-01T15:10:00.161Z,0.60
2023-06-01T15:12:27.689Z,1.10
2023-06-01T15:14:55.038Z,0.80
2023-06-01T15:17:22.773Z,1.10
2023-06-01T15:19:50.166Z,0.90
2023-06-01T15:22:17.426Z,0.80
2023-06-01T15:24:44.746Z,1.10
2023-06-01T15:27:12.177Z,0.80
2023-06-01T15:29:39.748Z,0.70
2023-06-01T15:32:07.762Z,0.90
2023-06-01T15:34:35.474Z,1.20
2023-06-01T15:37:03.067Z,1.10
2023-06-01T15:39:30.560Z,0.70
2023-06-01T15:41:58.476Z,1.30
2023-06-01T15:44:25.939Z,0.80
2023-06-01T15:46:53.456Z,0.80
2023-06-01T15:49:21.119Z,0.40
2023-06-01T15:51:48.383Z,1.00
2023-06-01T15:54:15.646Z,1.00
2023-06-01T15:56:44.274Z,0.70
2023-06-01T15:59:11.506Z,0.80
2023-06-01T16:01:38.864Z,0.50
2023-06-01T16:04:06.288Z,1.20
2023-06-01T16:06:33.625Z,1.00
2023-06-01T16:09:00.977Z,0.90
2023-06-01T16:11:28.366Z,0.70
2023-06-01T16:13:55.690Z,0.90
2023-06-01T16:16:23.135Z,0.50
2023-06-01T16:18:50.506Z,1.00
2023-06-01T16:21:17.917Z,0.80
2023-06-01T16:23:45.544Z,0.80
2023-06-01T16:26:12.869Z,0.80
2023-06-01T16:28:40.183Z,1.10
2023-06-01T16:31:07.531Z,0.80
2023-06-01T16:33:34.802Z,0.90
2023-06-01T16:36:02.198Z,1.00
2023-06-01T16:38:29.607Z,0.50
2023-06-01T16:40:56.876Z,0.90
2023-06-01T16:43:24.115Z,0.40
2023-06-01T16:45:51.433Z,0.80
2023-06-01T16:48:18.746Z,1.00
2023-06-01T16:50:47.685Z,0.50
2023-06-01T16:53:14.971Z,0.90
2023-06-01T16:55:42.750Z,0.90
2023-06-01T16:58:10.105Z,0.90
2023-06-01T17:00:37.450Z,1.20
2023-06-01T17:03:04.947Z,0.90
2023-06-01T17:05:33.714Z,0.80
2023-06-01T17:08:01.215Z,1.10
2023-06-01T17:10:28.560Z,0.80
2023-06-01T17:12:55.872Z,0.90
2023-06-01T17:15:23.271Z,0.90
2023-06-01T17:17:50.692Z,0.80
2023-06-01T17:20:18.016Z,1.10
2023-06-01T17:22:46.221Z,1.20
2023-06-01T17:25:13.677Z,1.10
2023-06-01T17:27:41.800Z,2.00
2023-06-01T17:30:09.739Z,1.40
2023-06-01T17:32:37.292Z,1.00
2023-06-01T17:35:04.787Z,0.90
2023-06-01T17:37:32.012Z,0.90
2023-06-01T17:39:59.250Z,0.80
2023-06-01T17:42:26.504Z,1.20
2023-06-01T17:44:53.770Z,1.10
2023-06-01T17:47:21.345Z,1.40
2023-06-01T17:49:48.720Z,1.60
2023-06-01T17:52:16.174Z,1.70
2023-06-01T17:54:44.599Z,1.50
2023-06-01T17:57:12.046Z,1.20
2023-06-01T17:59:43.509Z,1.50
2023-06-01T18:02:11.058Z,1.80
2023-06-01T18:04:38.921Z,1.60
2023-06-01T18:07:06.604Z,1.90
2023-06-01T18:09:33.952Z,1.50
2023-06-01T18:12:01.431Z,1.60
2023-06-01T18:14:28.762Z,1.50
2023-06-01T18:16:56.177Z,2.20
2023-06-01T18:19:24.972Z,1.70
2023-06-01T18:21:52.401Z,2.00
2023-06-01T18:24:19.656Z,2.10
2023-06-01T18:26:46.932Z,1.70
2023-06-01T18:29:14.393Z,1.80
2023-06-01T18:31:45.312Z,1.90
2023-06-01T18:34:12.724Z,2.20
2023-06-01T18:36:40.052Z,2.40
2023-06-01T18:39:10.245Z,2.30
2023-06-01T18:41:37.482Z,2.60
2023-06-01T18:44:05.098Z,1.50
2023-06-01T18:46:34.830Z,5.50
2023-06-01T18:49:02.308Z,6.40
2023-06-01T18:51:30.625Z,7.00
2023-06-01T18:53:58.246Z,5.90
2023-06-01T18:56:26.525Z,4.70
2023-06-01T18:58:53.986Z,3.70
2023-06-01T19:01:21.586Z,4.10
2023-06-01T19:03:51.215Z,4.00
2023-06-01T19:06:18.862Z,3.10
2023-06-01T19:08:46.133Z,9.60
2023-06-01T19:11:13.783Z,13.80
2023-06-01T19:13:44.413Z,11.10
2023-06-01T19:16:17.151Z,7.60
2023-06-01T19:18:49.581Z,12.40
2023-06-01T19:21:18.916Z,9.10
2023-06-01T19:23:57.971Z,13.00
2023-06-01T19:26:29.013Z,5.10
2023-06-01T19:29:05.445Z,9.70
2023-06-01T19:31:35.470Z,14.30
2023-06-01T19:34:08.144Z,12.30
2023-06-01T19:36:45.476Z,7.40
2023-06-01T19:39:16.249Z,3.80
2023-06-01T19:41:44.469Z,12.30
2023-06-01T19:44:17.421Z,6.80
2023-06-01T19:46:44.774Z,5.80
2023-06-01T19:49:18.458Z,3.70
2023-06-01T19:51:47.475Z,3.70
2023-06-01T19:54:23.490Z,11.40
2023-06-01T19:59:24.850Z,12.20
2023-06-01T20:01:53.774Z,9.80
2023-06-01T20:04:21.697Z,5.20
2023-06-01T20:06:50.945Z,4.60
2023-06-01T20:09:22.941Z,5.30
2023-06-01T20:11:52.841Z,7.20
2023-06-01T20:14:29.595Z,4.60
2023-06-01T20:17:04.559Z,4.30
2023-06-01T20:19:32.299Z,4.70
2023-06-01T20:22:00.029Z,3.90
2023-06-01T20:24:30.579Z,4.10
2023-06-01T20:27:00.747Z,5.30
2023-06-01T20:29:32.318Z,4.50
2023-06-01T20:32:01.735Z,9.00
2023-06-01T20:34:32.771Z,13.80
2023-06-01T20:37:01.185Z,6.60
2023-06-01T20:39:28.508Z,9.50
2023-06-01T20:41:59.920Z,4.60
2023-06-01T20:44:28.688Z,3.80
2023-06-01T20:46:56.673Z,9.40
2023-06-01T20:49:26.377Z,8.90
2023-06-01T20:51:54.712Z,7.90
2023-06-01T20:54:24.227Z,3.70
2023-06-01T20:56:56.228Z,8.50
2023-06-01T20:59:27.297Z,12.30
2023-06-01T21:01:59.782Z,9.70
2023-06-01T21:04:29.469Z,7.10
2023-06-01T21:06:56.880Z,5.00
2023-06-01T21:09:25.324Z,9.40
2023-06-01T21:11:54.771Z,9.30
2023-06-01T21:14:23.426Z,10.00
2023-06-01T21:16:51.363Z,3.20
2023-06-01T21:19:18.807Z,3.60
2023-06-01T21:21:46.405Z,3.70
2023-06-01T21:24:13.864Z,3.50
2023-06-01T21:26:41.234Z,5.30
2023-06-01T21:29:11.381Z,3.50
2023-06-01T21:31:38.990Z,3.90
2023-06-01T21:34:06.495Z,7.60
2023-06-01T21:36:33.873Z,4.00
2023-06-01T21:39:01.168Z,3.50
2023-06-01T21:41:28.755Z,6.20
2023-06-01T21:43:56.109Z,3.80
2023-06-01T21:46:23.440Z,3.60
2023-06-01T21:48:50.790Z,4.10
2023-06-01T21:51:18.136Z,4.40
2023-06-01T21:53:45.526Z,6.60
2023-06-01T21:56:13.374Z,7.80
2023-06-01T21:58:42.462Z,3.60
2023-06-01T22:01:09.952Z,4.90
2023-06-01T22:03:37.413Z,7.80
2023-06-01T22:06:06.342Z,6.30
2023-06-01T22:08:34.253Z,4.10
2023-06-01T22:11:01.608Z,2.90
2023-06-01T22:13:28.960Z,3.50
2023-06-01T22:15:56.181Z,6.30
2023-06-01T22:18:23.400Z,3.40
2023-06-01T22:20:50.620Z,3.80
2023-06-01T22:23:17.940Z,8.30
2023-06-01T22:25:45.194Z,8.50
2023-06-01T22:28:12.518Z,8.40
2023-06-01T22:30:40.337Z,3.90
2023-06-01T22:33:07.740Z,5.80
2023-06-01T22:35:35.075Z,11.90
2023-06-01T22:38:02.338Z,12.20
2023-06-01T22:40:30.468Z,3.80
2023-06-01T22:42:57.920Z,18.60
2023-06-01T22:45:25.346Z,5.60
2023-06-01T22:47:52.684Z,4.70
2023-06-01T22:50:20.440Z,11.30
2023-06-01T22:52:49.553Z,13.00
2023-06-01T22:55:17.560Z,5.50
2023-06-01T22:57:44.829Z,4.20
2023-06-01T23:00:12.840Z,3.80
2023-06-01T23:02:40.381Z,2.50
2023-06-01T23:05:08.224Z,4.30
2023-06-01T23:07:37.610Z,4.10
2023-06-01T23:10:05.820Z,3.10
2023-06-01T23:12:35.878Z,3.80
2023-06-01T23:15:04.269Z,6.90
2023-06-01T23:17:33.993Z,3.10
2023-06-01T23:20:07.380Z,2.70
2023-06-01T23:22:37.745Z,2.60
2023-06-01T23:25:06.014Z,2.80
2023-06-01T23:27:33.335Z,5.50
2023-06-01T23:30:01.096Z,3.60
2023-06-01T23:32:28.436Z,4.60
2023-06-01T23:34:55.736Z,5.70
2023-06-01T23:37:28.978Z,11.00
2023-06-01T23:39:57.641Z,7.30
2023-06-01T23:42:24.914Z,4.50
2023-06-01T23:44:52.479Z,7.50
2023-06-01T23:47:21.841Z,11.30
2023-06-01T23:49:49.620Z,8.30
2023-06-01T23:52:16.934Z,11.00
2023-06-01T23:54:44.214Z,12.30
2023-06-01T23:57:11.511Z,3.50
2023-06-01T23:59:38.782Z,7.80
